Time,TemperatureF,DewpointF,PressureIn,WindDirection,WindDirectionDegrees,WindSpeedMPH,WindSpeedGustMPH,Humidity,HourlyPrecipIn,Conditions,Clouds,dailyrainin,SolarRadiationWatts/m^2,SoftwareType,DateUTC
2013-08-19 17:30:00,89.5,50.1,29.88,SE,134,3.0,10.0,26,0.00,CLR,,0.00,301.0,WeatherDisplay:10.37,2013-08-19 15:30:00,
2013-08-19 17:40:00,89.3,49.9,29.88,SE,129,3.0,8.0,26,0.00,CLR,,0.00,274.0,WeatherDisplay:10.37,2013-08-19 15:40:00,
2013-08-19 17:50:00,89.2,50.8,29.88,SSE,152,2.0,7.0,27,0.00,CLR,,0.00,251.0,WeatherDisplay:10.37,2013-08-19 15:50:00,
2013-08-19 18:00:00,89.3,49.9,29.88,SE,136,6.0,8.0,26,0.00,CLR,,0.00,225.0,WeatherDisplay:10.37,2013-08-19 16:00:00,
2013-08-19 18:10:00,89.0,49.7,29.88,ESE,123,5.0,9.0,26,0.00,CLR,,0.00,200.0,WeatherDisplay:10.37,2013-08-19 16:10:00,
2013-08-19 18:20:00,88.8,49.5,29.88,SE,126,5.0,9.0,26,0.00,CLR,,0.00,151.0,WeatherDisplay:10.37,2013-08-19 16:20:00,
2013-08-19 18:30:00,88.2,50.0,29.87,ESE,122,3.0,9.0,27,0.00,CLR,,0.00,134.0,WeatherDisplay:10.37,2013-08-19 16:30:00,
2013-08-19 18:40:00,87.7,51.5,29.88,ESE,118,3.0,9.0,29,0.00,FEW,,0.00,77.0,WeatherDisplay:10.37,2013-08-19 16:40:00,
2013-08-19 18:50:00,87.2,51.0,29.88,ESE,109,1.0,2.0,29,0.00,BKN,,0.00,32.0,WeatherDisplay:10.37,2013-08-19 16:50:00,
2013-08-19 19:00:00,86.6,50.6,29.88,ESE,118,2.0,4.0,29,0.00,BKN,,0.00,25.0,WeatherDisplay:10.37,2013-08-19 17:00:00,
2013-08-19 19:10:00,86.0,51.0,29.88,ESE,102,1.0,5.0,30,0.00,BKN,,0.00,25.0,WeatherDisplay:10.37,2013-08-19 17:10:00,
2013-08-19 19:15:00,85.6,50.6,29.88,ESE,120,2.0,5.0,30,0.00,CLR,,0.00,21.0,WeatherDisplay:10.37,2013-08-19 17:15:00,
2013-08-19 19:20:00,85.3,50.4,29.88,ESE,104,2.6,4.6,30,0.00,CLR,,0.00,18.0,WeatherDisplay:10.37,2013-08-19 17:20:00,
2013-08-19 19:25:00,85.1,50.2,29.88,East,95,2.1,5.0,30,0.00,CLR,,0.00,12.0,WeatherDisplay:10.37,2013-08-19 17:25:00,
2013-08-19 19:30:00,84.8,49.9,29.88,ESE,120,3.5,7.0,30,0.00,CLR,,0.00,9.0,WeatherDisplay:10.37,2013-08-19 17:30:00,
2013-08-19 19:35:00,84.5,49.7,29.88,ESE,111,1.2,4.6,30,0.00,CLR,,0.00,5.0,WeatherDisplay:10.37,2013-08-19 17:35:00,
2013-08-19 19:40:00,84.3,49.5,29.88,ESE,108,2.6,5.0,30,0.00,CLR,,0.00,5.0,WeatherDisplay:10.37,2013-08-19 17:40:00,
2013-08-19 19:45:00,84.0,50.1,29.88,ESE,107,1.3,4.6,31,0.00,CLR,,0.00,0.0,WeatherDisplay:10.37,2013-08-19 17:45:00,
2013-08-19 19:50:00,83.8,49.9,29.88,SE,135,0.2,5.8,31,0.00,CLR,,0.00,0.0,WeatherDisplay:10.37,2013-08-19 17:50:00,
2013-08-19 19:55:00,83.6,49.8,29.88,ESE,113,2.9,8.0,31,0.00,CLR,,0.00,0.0,WeatherDisplay:10.37,2013-08-19 17:55:00,
2013-08-19 20:00:00,83.4,49.6,29.88,ESE,106,1.5,7.0,31,0.00,CLR,,0.00,0.0,WeatherDisplay:10.37,2013-08-19 18:00:00,
2013-08-19 20:05:00,83.2,49.4,29.88,SE,124,1.5,4.6,31,0.00,CLR,,0.00,0.0,WeatherDisplay:10.37,2013-08-19 18:05:00,
2013-08-19 20:10:00,83.1,49.3,29.88,East,87,1.4,6.9,31,0.00,CLR,,0.00,0.0,WeatherDisplay:10.37,2013-08-19 18:10:00,
2013-08-19 20:15:00,82.9,50.0,29.88,ESE,119,1.2,4.0,32,0.00,CLR,,0.00,0.0,WeatherDisplay:10.37,2013-08-19 18:15:00,
2013-08-19 20:20:00,82.8,49.1,29.88,SE,132,3.6,6.0,31,0.00,CLR,,0.00,0.0,WeatherDisplay:10.37,2013-08-19 18:20:00,
2013-08-19 20:25:00,82.6,49.7,29.88,ESE,118,2.5,5.0,32,0.00,CLR,,0.00,0.0,WeatherDisplay:10.37,2013-08-19 18:25:00,
2013-08-19 20:30:00,82.4,49.6,29.88,East,97,2.5,5.0,32,0.00,CLR,,0.00,0.0,WeatherDisplay:10.37,2013-08-19 18:30:00,
2013-08-19 20:35:00,82.3,49.5,29.88,ESE,105,1.4,4.6,32,0.00,CLR,,0.00,0.0,WeatherDisplay:10.37,2013-08-19 18:35:00,
2013-08-19 20:40:00,82.1,49.3,29.88,East,94,2.3,4.6,32,0.00,CLR,,0.00,0.0,WeatherDisplay:10.37,2013-08-19 18:40:00,
2013-08-19 20:45:00,82.0,50.1,29.88,SE,130,2.7,6.9,33,0.00,CLR,,0.00,0.0,WeatherDisplay:10.37,2013-08-19 18:45:00,
2013-08-19 20:50:00,82.0,50.1,29.89,SE,140,2.4,7.0,33,0.00,CLR,,0.00,0.0,WeatherDisplay:10.37,2013-08-19 18:50:00,
2013-08-19 20:55:00,81.9,50.0,29.89,SE,137,1.8,3.5,33,0.00,CLR,,0.00,0.0,WeatherDisplay:10.37,2013-08-19 18:55:00,
2013-08-19 21:00:00,81.8,49.9,29.89,ESE,121,2.4,6.9,33,0.00,CLR,,0.00,0.0,WeatherDisplay:10.37,2013-08-19 19:00:00,
2013-08-19 21:05:00,81.7,49.8,29.89,SE,134,2.8,9.2,33,0.00,CLR,,0.00,0.0,WeatherDisplay:10.37,2013-08-19 19:05:00,
2013-08-19 21:10:00,81.7,49.8,29.89,ESE,109,1.9,7.0,33,0.00,CLR,,0.00,0.0,WeatherDisplay:10.37,2013-08-19 19:10:00,
2013-08-19 21:15:00,81.7,49.8,29.89,SE,125,4.7,10.4,33,0.00,CLR,,0.00,0.0,WeatherDisplay:10.37,2013-08-19 19:15:00,
2013-08-19 21:20:00,81.7,49.8,29.89,ESE,121,2.2,9.2,33,0.00,CLR,,0.00,0.0,WeatherDisplay:10.37,2013-08-19 19:20:00,
2013-08-19 21:25:00,81.7,49.8,29.89,SE,133,4.2,10.0,33,0.00,CLR,,0.00,0.0,WeatherDisplay:10.37,2013-08-19 19:25:00,
2013-08-19 21:30:00,81.6,49.7,29.89,SE,132,2.1,4.6,33,0.00,CLR,,0.00,0.0,WeatherDisplay:10.37,2013-08-19 19:30:00,
2013-08-19 21:35:00,81.5,49.6,29.89,SE,146,1.7,6.9,33,0.00,CLR,,0.00,0.0,WeatherDisplay:10.37,2013-08-19 19:35:00,
2013-08-19 21:40:00,81.3,50.2,29.89,South,169,1.7,6.9,34,0.00,CLR,,0.00,0.0,WeatherDisplay:10.37,2013-08-19 19:40:00,
2013-08-19 21:45:00,81.2,50.2,29.89,ESE,120,1.8,5.8,34,0.00,CLR,,0.00,0.0,WeatherDisplay:10.37,2013-08-19 19:45:00,
2013-08-19 21:50:00,81.1,50.1,29.89,SE,140,2.9,8.1,34,0.00,CLR,,0.00,0.0,WeatherDisplay:10.37,2013-08-19 19:50:00,
2013-08-19 21:55:00,80.9,49.9,29.89,SE,146,0.8,4.0,34,0.00,CLR,,0.00,0.0,WeatherDisplay:10.37,2013-08-19 19:55:00,
2013-08-19 22:00:00,80.8,49.8,29.89,ESE,113,4.1,8.0,34,0.00,CLR,,0.00,0.0,WeatherDisplay:10.37,2013-08-19 20:00:00,
2013-08-19 22:05:00,80.6,50.4,29.89,ESE,123,2.6,5.0,35,0.00,CLR,,0.00,0.0,WeatherDisplay:10.37,2013-08-19 20:05:00,
2013-08-19 22:10:00,80.5,50.3,29.89,SE,139,3.9,8.1,35,0.00,CLR,,0.00,0.0,WeatherDisplay:10.37,2013-08-19 20:10:00,
2013-08-19 22:15:00,80.4,50.2,29.89,SE,126,3.5,10.0,35,0.00,CLR,,0.00,0.0,WeatherDisplay:10.37,2013-08-19 20:15:00,
2013-08-19 22:20:00,80.3,50.9,29.90,SE,127,2.3,5.8,36,0.00,CLR,,0.00,0.0,WeatherDisplay:10.37,2013-08-19 20:20:00,
2013-08-19 22:25:00,80.2,50.8,29.90,SE,128,1.5,4.0,36,0.00,CLR,,0.00,0.0,WeatherDisplay:10.37,2013-08-19 20:25:00,
2013-08-19 22:30:00,80.1,50.7,29.90,SE,126,1.6,3.5,36,0.00,CLR,,0.00,0.0,WeatherDisplay:10.37,2013-08-19 20:30:00,
2013-08-19 22:35:00,79.8,50.5,29.89,SE,140,2.5,6.0,36,0.00,CLR,,0.00,0.0,WeatherDisplay:10.37,2013-08-19 20:35:00,
2013-08-19 22:40:00,79.7,51.1,29.89,ESE,109,3.0,8.1,37,0.00,CLR,,0.00,0.0,WeatherDisplay:10.37,2013-08-19 20:40:00,
2013-08-19 22:45:00,79.5,50.9,29.89,SSE,167,3.4,8.1,37,0.00,CLR,,0.00,0.0,WeatherDisplay:10.37,2013-08-19 20:45:00,
2013-08-19 22:51:00,79.5,50.9,29.89,SSE,157,3.8,7.0,37,0.00,CLR,,0.00,0.0,WeatherDisplay:10.37,2013-08-19 20:51:00,
2013-08-19 22:56:00,79.4,50.9,29.89,SE,142,5.2,10.0,37,0.00,CLR,,0.00,0.0,WeatherDisplay:10.37,2013-08-19 20:56:00,
2013-08-19 23:01:00,79.4,50.9,29.89,SSE,153,1.9,6.9,37,0.00,CLR,,0.00,0.0,WeatherDisplay:10.37,2013-08-19 21:01:00,
2013-08-19 23:07:00,79.4,50.9,29.89,East,93,2.8,9.2,37,0.00,CLR,,0.00,0.0,WeatherDisplay:10.37,2013-08-19 21:07:00,
2013-08-19 23:12:00,79.3,50.8,29.89,SE,132,3.3,7.0,37,0.00,CLR,,0.00,0.0,WeatherDisplay:10.37,2013-08-19 21:12:00,
2013-08-19 23:17:00,79.2,50.7,29.89,ESE,121,4.8,8.0,37,0.00,CLR,,0.00,0.0,WeatherDisplay:10.37,2013-08-19 21:17:00,
2013-08-19 23:22:00,79.1,50.6,29.89,SE,132,5.6,10.0,37,0.00,CLR,,0.00,0.0,WeatherDisplay:10.37,2013-08-19 21:22:00,
2013-08-19 23:28:00,79.0,50.5,29.89,ESE,113,4.2,8.1,37,0.00,CLR,,0.00,0.0,WeatherDisplay:10.37,2013-08-19 21:28:00,
2013-08-19 23:33:00,78.9,50.4,29.89,ESE,119,3.7,10.4,37,0.00,CLR,,0.00,0.0,WeatherDisplay:10.37,2013-08-19 21:33:00,
2013-08-19 23:38:00,78.8,50.3,29.89,SE,131,2.1,10.4,37,0.00,CLR,,0.00,0.0,WeatherDisplay:10.37,2013-08-19 21:38:00,
2013-08-19 23:43:00,78.7,51.0,29.89,ESE,113,3.9,7.0,38,0.00,CLR,,0.00,0.0,WeatherDisplay:10.37,2013-08-19 21:43:00,
2013-08-19 23:48:00,78.6,50.9,29.89,SE,128,2.3,6.9,38,0.00,CLR,,0.00,0.0,WeatherDisplay:10.37,2013-08-19 21:48:00,
2013-08-19 23:53:00,78.6,50.9,29.89,SE,131,2.9,7.0,38,0.00,CLR,,0.00,0.0,WeatherDisplay:10.37,2013-08-19 21:53:00,
2013-08-19 23:58:00,78.5,50.8,29.89,SE,140,2.2,8.1,38,0.00,CLR,,0.00,0.0,WeatherDisplay:10.37,2013-08-19 21:58:00,